KLHX

La Junta Municipal Airport

La Junta, Colorado, USA
METAR KLHX 150253Z AUTO 09010KT 10SM CLR 23/14 A3009 RMK AO2 SLP136 T02280144 53021
Observed Flight Rules
Aug-15 @ 02:53 UTC (42 minutes ago) Visual Flight Rules
Wind Visibility Clouds
90° at 10 knots 10 miles
  • Clear skies
Temperatures Readings
Current 23°C / 73°F
Dewpoint 14°C / 57°F
Humidity 57%
Altimeter 30.09" Hg
Pressure 1013.6 hPa
Elevation 1277
METAR KLHX 150253Z AUTO 09010KT 10SM CLR 23/14 A3009 RMK AO2 SLP136 T02280144 53021
Observed Flight Rules
Aug-15 @ 02:53 UTC
(42 minutes ago)
VFR
Wind Visibility
90° at 10 knots 10 miles
Clouds
  • Clear skies
Temperature Dewpoint
23°C / 73°F 14°C / 57°F
Humidity Altimeter Pressure
57% 30.09" Hg 1013.6 hPa